sensor_id;sensor_type;location;lat;lon;timestamp;P1;durP1;ratioP1;P2;durP2;ratioP2
17424;SDS011;8830;50.978;5.058;2022-07-23T00:00:18;10.67;;;9.73;;
17424;SDS011;8830;50.978;5.058;2022-07-23T00:02:45;9.70;;;8.63;;
17424;SDS011;8830;50.978;5.058;2022-07-23T00:05:12;11.27;;;9.27;;
17424;SDS011;8830;50.978;5.058;2022-07-23T00:07:40;9.10;;;8.20;;
17424;SDS011;8830;50.978;5.058;2022-07-23T00:10:08;10.30;;;9.23;;
17424;SDS011;8830;50.978;5.058;2022-07-23T00:12:36;8.93;;;8.10;;
17424;SDS011;8830;50.978;5.058;2022-07-23T00:15:04;10.73;;;9.20;;
17424;SDS011;8830;50.978;5.058;2022-07-23T00:17:32;15.57;;;10.07;;
17424;SDS011;8830;50.978;5.058;2022-07-23T00:20:00;11.87;;;9.77;;
17424;SDS011;8830;50.978;5.058;2022-07-23T00:22:27;10.30;;;9.37;;
17424;SDS011;8830;50.978;5.058;2022-07-23T00:24:55;10.17;;;9.27;;
17424;SDS011;8830;50.978;5.058;2022-07-23T00:27:22;10.63;;;9.67;;
17424;SDS011;8830;50.978;5.058;2022-07-23T00:29:50;10.83;;;9.43;;
17424;SDS011;8830;50.978;5.058;2022-07-23T00:32:17;10.10;;;9.10;;
17424;SDS011;8830;50.978;5.058;2022-07-23T00:34:44;10.37;;;9.03;;
17424;SDS011;8830;50.978;5.058;2022-07-23T00:37:11;12.57;;;9.33;;
17424;SDS011;8830;50.978;5.058;2022-07-23T00:39:38;10.27;;;9.10;;
17424;SDS011;8830;50.978;5.058;2022-07-23T00:42:07;10.20;;;9.40;;
17424;SDS011;8830;50.978;5.058;2022-07-23T00:44:34;14.90;;;9.60;;
17424;SDS011;8830;50.978;5.058;2022-07-23T00:47:01;10.87;;;9.93;;
17424;SDS011;8830;50.978;5.058;2022-07-23T00:49:31;11.10;;;10.10;;
17424;SDS011;8830;50.978;5.058;2022-07-23T00:51:59;11.80;;;10.67;;
17424;SDS011;8830;50.978;5.058;2022-07-23T00:54:28;12.40;;;10.73;;
17424;SDS011;8830;50.978;5.058;2022-07-23T00:56:55;10.80;;;9.80;;
17424;SDS011;8830;50.978;5.058;2022-07-23T00:59:24;13.07;;;10.30;;
17424;SDS011;8830;50.978;5.058;2022-07-23T01:01:51;11.83;;;10.80;;
17424;SDS011;8830;50.978;5.058;2022-07-23T01:04:18;12.37;;;11.23;;
17424;SDS011;8830;50.978;5.058;2022-07-23T01:06:45;13.33;;;11.93;;
17424;SDS011;8830;50.978;5.058;2022-07-23T01:09:12;17.27;;;13.23;;
17424;SDS011;8830;50.978;5.058;2022-07-23T01:11:39;13.87;;;12.37;;
17424;SDS011;8830;50.978;5.058;2022-07-23T01:14:08;13.90;;;12.60;;
17424;SDS011;8830;50.978;5.058;2022-07-23T01:16:38;13.83;;;12.57;;
17424;SDS011;8830;50.978;5.058;2022-07-23T01:19:05;14.23;;;12.80;;
17424;SDS011;8830;50.978;5.058;2022-07-23T01:21:34;14.33;;;13.03;;
17424;SDS011;8830;50.978;5.058;2022-07-23T01:24:04;16.70;;;13.83;;
17424;SDS011;8830;50.978;5.058;2022-07-23T01:26:31;15.80;;;14.10;;
17424;SDS011;8830;50.978;5.058;2022-07-23T01:28:58;15.43;;;13.80;;
17424;SDS011;8830;50.978;5.058;2022-07-23T01:31:26;16.33;;;14.07;;
17424;SDS011;8830;50.978;5.058;2022-07-23T01:33:53;17.70;;;15.07;;
17424;SDS011;8830;50.978;5.058;2022-07-23T01:36:20;17.93;;;13.93;;
17424;SDS011;8830;50.978;5.058;2022-07-23T01:38:48;17.37;;;13.70;;
17424;SDS011;8830;50.978;5.058;2022-07-23T01:41:17;15.33;;;13.70;;
17424;SDS011;8830;50.978;5.058;2022-07-23T01:43:44;15.30;;;13.33;;
17424;SDS011;8830;50.978;5.058;2022-07-23T01:46:11;16.73;;;12.67;;
17424;SDS011;8830;50.978;5.058;2022-07-23T01:48:38;15.07;;;12.90;;
17424;SDS011;8830;50.978;5.058;2022-07-23T01:51:05;14.37;;;12.90;;
17424;SDS011;8830;50.978;5.058;2022-07-23T01:53:33;14.83;;;12.23;;
17424;SDS011;8830;50.978;5.058;2022-07-23T01:56:00;13.43;;;12.20;;
17424;SDS011;8830;50.978;5.058;2022-07-23T01:58:29;14.13;;;12.73;;
17424;SDS011;8830;50.978;5.058;2022-07-23T02:00:57;14.73;;;13.27;;
17424;SDS011;8830;50.978;5.058;2022-07-23T02:03:25;14.57;;;12.90;;
17424;SDS011;8830;50.978;5.058;2022-07-23T02:05:52;14.57;;;13.23;;
17424;SDS011;8830;50.978;5.058;2022-07-23T02:08:19;13.87;;;12.47;;
17424;SDS011;8830;50.978;5.058;2022-07-23T02:10:47;14.47;;;12.97;;
17424;SDS011;8830;50.978;5.058;2022-07-23T02:13:16;14.17;;;12.67;;
17424;SDS011;8830;50.978;5.058;2022-07-23T02:15:45;14.90;;;13.53;;
17424;SDS011;8830;50.978;5.058;2022-07-23T02:18:12;14.27;;;12.77;;
17424;SDS011;8830;50.978;5.058;2022-07-23T02:20:40;14.27;;;12.80;;
17424;SDS011;8830;50.978;5.058;2022-07-23T02:23:07;15.33;;;13.33;;
17424;SDS011;8830;50.978;5.058;2022-07-23T02:25:34;15.53;;;13.13;;
17424;SDS011;8830;50.978;5.058;2022-07-23T02:28:02;17.20;;;12.90;;
17424;SDS011;8830;50.978;5.058;2022-07-23T02:30:29;13.87;;;12.57;;
17424;SDS011;8830;50.978;5.058;2022-07-23T02:32:59;14.13;;;12.67;;
17424;SDS011;8830;50.978;5.058;2022-07-23T02:35:26;14.97;;;12.90;;
17424;SDS011;8830;50.978;5.058;2022-07-23T02:37:53;13.60;;;12.47;;
17424;SDS011;8830;50.978;5.058;2022-07-23T02:40:20;15.13;;;13.00;;
17424;SDS011;8830;50.978;5.058;2022-07-23T02:42:47;14.43;;;13.13;;
17424;SDS011;8830;50.978;5.058;2022-07-23T02:45:14;14.03;;;12.67;;
17424;SDS011;8830;50.978;5.058;2022-07-23T02:47:41;14.60;;;13.10;;
17424;SDS011;8830;50.978;5.058;2022-07-23T02:50:09;14.20;;;12.57;;
17424;SDS011;8830;50.978;5.058;2022-07-23T02:52:37;14.60;;;13.13;;
17424;SDS011;8830;50.978;5.058;2022-07-23T02:55:04;15.00;;;12.73;;
17424;SDS011;8830;50.978;5.058;2022-07-23T02:57:32;15.27;;;13.77;;
17424;SDS011;8830;50.978;5.058;2022-07-23T02:59:59;15.83;;;14.27;;
17424;SDS011;8830;50.978;5.058;2022-07-23T03:02:26;17.13;;;15.47;;
17424;SDS011;8830;50.978;5.058;2022-07-23T03:04:53;16.27;;;13.53;;
17424;SDS011;8830;50.978;5.058;2022-07-23T03:07:23;16.40;;;13.67;;
17424;SDS011;8830;50.978;5.058;2022-07-23T03:09:50;16.63;;;14.30;;
17424;SDS011;8830;50.978;5.058;2022-07-23T03:12:17;14.30;;;12.97;;
17424;SDS011;8830;50.978;5.058;2022-07-23T03:14:44;16.90;;;15.30;;
17424;SDS011;8830;50.978;5.058;2022-07-23T03:17:11;16.07;;;14.50;;
17424;SDS011;8830;50.978;5.058;2022-07-23T03:19:37;17.67;;;16.07;;
17424;SDS011;8830;50.978;5.058;2022-07-23T03:22:05;16.40;;;14.10;;
17424;SDS011;8830;50.978;5.058;2022-07-23T03:24:33;17.93;;;16.00;;
17424;SDS011;8830;50.978;5.058;2022-07-23T03:27:18;17.43;;;15.63;;
17424;SDS011;8830;50.978;5.058;2022-07-23T03:29:45;19.97;;;15.90;;
17424;SDS011;8830;50.978;5.058;2022-07-23T03:32:12;16.47;;;14.93;;
17424;SDS011;8830;50.978;5.058;2022-07-23T03:34:39;21.37;;;16.10;;
17424;SDS011;8830;50.978;5.058;2022-07-23T03:37:06;16.47;;;15.00;;
17424;SDS011;8830;50.978;5.058;2022-07-23T03:39:35;17.40;;;13.20;;
17424;SDS011;8830;50.978;5.058;2022-07-23T03:42:02;15.70;;;13.73;;
17424;SDS011;8830;50.978;5.058;2022-07-23T03:44:29;12.83;;;11.53;;
17424;SDS011;8830;50.978;5.058;2022-07-23T03:46:56;15.43;;;13.87;;
17424;SDS011;8830;50.978;5.058;2022-07-23T03:49:24;14.30;;;12.83;;
17424;SDS011;8830;50.978;5.058;2022-07-23T03:51:51;12.63;;;11.63;;
17424;SDS011;8830;50.978;5.058;2022-07-23T03:54:18;13.13;;;11.93;;
17424;SDS011;8830;50.978;5.058;2022-07-23T03:56:47;14.10;;;11.83;;
17424;SDS011;8830;50.978;5.058;2022-07-23T03:59:14;16.60;;;12.83;;
17424;SDS011;8830;50.978;5.058;2022-07-23T04:01:41;12.53;;;11.43;;
17424;SDS011;8830;50.978;5.058;2022-07-23T04:04:08;14.20;;;11.10;;
17424;SDS011;8830;50.978;5.058;2022-07-23T04:06:35;12.17;;;11.13;;
17424;SDS011;8830;50.978;5.058;2022-07-23T04:09:02;12.10;;;10.90;;
17424;SDS011;8830;50.978;5.058;2022-07-23T04:11:30;12.80;;;11.70;;
17424;SDS011;8830;50.978;5.058;2022-07-23T04:13:58;14.23;;;11.40;;
17424;SDS011;8830;50.978;5.058;2022-07-23T04:16:25;12.60;;;10.60;;
17424;SDS011;8830;50.978;5.058;2022-07-23T04:18:53;12.37;;;11.07;;
17424;SDS011;8830;50.978;5.058;2022-07-23T04:21:20;12.73;;;11.47;;
17424;SDS011;8830;50.978;5.058;2022-07-23T04:23:48;14.37;;;11.67;;
17424;SDS011;8830;50.978;5.058;2022-07-23T04:26:15;12.53;;;11.30;;
17424;SDS011;8830;50.978;5.058;2022-07-23T04:28:42;14.13;;;11.83;;
17424;SDS011;8830;50.978;5.058;2022-07-23T04:31:10;12.17;;;10.90;;
17424;SDS011;8830;50.978;5.058;2022-07-23T04:33:37;12.07;;;10.90;;
17424;SDS011;8830;50.978;5.058;2022-07-23T04:36:05;12.03;;;10.23;;
17424;SDS011;8830;50.978;5.058;2022-07-23T04:38:32;10.37;;;9.37;;
17424;SDS011;8830;50.978;5.058;2022-07-23T04:40:59;14.13;;;10.23;;
17424;SDS011;8830;50.978;5.058;2022-07-23T04:43:27;10.77;;;9.77;;
17424;SDS011;8830;50.978;5.058;2022-07-23T04:45:54;10.23;;;9.33;;
17424;SDS011;8830;50.978;5.058;2022-07-23T04:48:22;9.90;;;8.93;;
17424;SDS011;8830;50.978;5.058;2022-07-23T04:50:49;9.97;;;9.17;;
17424;SDS011;8830;50.978;5.058;2022-07-23T04:53:17;9.70;;;8.77;;
17424;SDS011;8830;50.978;5.058;2022-07-23T04:55:44;11.03;;;9.07;;
17424;SDS011;8830;50.978;5.058;2022-07-23T04:58:12;12.20;;;9.00;;
17424;SDS011;8830;50.978;5.058;2022-07-23T05:00:39;9.77;;;8.83;;
17424;SDS011;8830;50.978;5.058;2022-07-23T05:03:06;9.97;;;8.77;;
17424;SDS011;8830;50.978;5.058;2022-07-23T05:05:35;9.20;;;8.30;;
17424;SDS011;8830;50.978;5.058;2022-07-23T05:08:02;9.67;;;8.80;;
17424;SDS011;8830;50.978;5.058;2022-07-23T05:10:30;8.80;;;8.13;;
17424;SDS011;8830;50.978;5.058;2022-07-23T05:12:57;8.97;;;8.10;;
17424;SDS011;8830;50.978;5.058;2022-07-23T05:15:24;8.97;;;7.50;;
17424;SDS011;8830;50.978;5.058;2022-07-23T05:17:51;7.73;;;7.13;;
17424;SDS011;8830;50.978;5.058;2022-07-23T05:20:19;8.00;;;7.40;;
17424;SDS011;8830;50.978;5.058;2022-07-23T05:22:47;7.40;;;6.70;;
17424;SDS011;8830;50.978;5.058;2022-07-23T05:25:14;7.63;;;7.13;;
17424;SDS011;8830;50.978;5.058;2022-07-23T05:27:41;7.50;;;6.85;;
17424;SDS011;8830;50.978;5.058;2022-07-23T05:30:09;7.47;;;6.53;;
17424;SDS011;8830;50.978;5.058;2022-07-23T05:32:37;7.88;;;7.18;;
17424;SDS011;8830;50.978;5.058;2022-07-23T05:35:05;6.53;;;5.90;;
17424;SDS011;8830;50.978;5.058;2022-07-23T05:37:33;7.38;;;6.78;;
17424;SDS011;8830;50.978;5.058;2022-07-23T05:40:02;7.88;;;6.88;;
17424;SDS011;8830;50.978;5.058;2022-07-23T05:42:32;8.98;;;8.18;;
17424;SDS011;8830;50.978;5.058;2022-07-23T05:45:00;10.93;;;8.43;;
17424;SDS011;8830;50.978;5.058;2022-07-23T05:47:28;8.48;;;7.85;;
17424;SDS011;8830;50.978;5.058;2022-07-23T05:49:55;8.43;;;7.63;;
17424;SDS011;8830;50.978;5.058;2022-07-23T05:52:23;7.88;;;7.28;;
17424;SDS011;8830;50.978;5.058;2022-07-23T05:54:50;8.25;;;7.57;;
17424;SDS011;8830;50.978;5.058;2022-07-23T05:57:19;8.15;;;7.50;;
17424;SDS011;8830;50.978;5.058;2022-07-23T05:59:46;7.53;;;6.93;;
17424;SDS011;8830;50.978;5.058;2022-07-23T06:02:13;8.80;;;8.20;;
17424;SDS011;8830;50.978;5.058;2022-07-23T06:04:41;8.10;;;7.40;;
17424;SDS011;8830;50.978;5.058;2022-07-23T06:07:08;7.70;;;6.97;;
17424;SDS011;8830;50.978;5.058;2022-07-23T06:09:35;7.88;;;7.18;;
17424;SDS011;8830;50.978;5.058;2022-07-23T06:12:02;7.20;;;6.70;;
17424;SDS011;8830;50.978;5.058;2022-07-23T06:14:32;7.60;;;7.10;;
17424;SDS011;8830;50.978;5.058;2022-07-23T06:16:59;6.85;;;6.25;;
17424;SDS011;8830;50.978;5.058;2022-07-23T06:19:27;7.30;;;6.70;;
17424;SDS011;8830;50.978;5.058;2022-07-23T06:21:54;7.13;;;6.63;;
17424;SDS011;8830;50.978;5.058;2022-07-23T06:24:21;7.10;;;6.50;;
17424;SDS011;8830;50.978;5.058;2022-07-23T06:26:48;7.13;;;6.43;;
17424;SDS011;8830;50.978;5.058;2022-07-23T06:29:16;7.30;;;6.22;;
17424;SDS011;8830;50.978;5.058;2022-07-23T06:31:45;6.70;;;6.30;;
17424;SDS011;8830;50.978;5.058;2022-07-23T06:34:12;7.00;;;6.40;;
17424;SDS011;8830;50.978;5.058;2022-07-23T06:36:40;7.07;;;6.38;;
17424;SDS011;8830;50.978;5.058;2022-07-23T06:39:07;6.53;;;6.05;;
17424;SDS011;8830;50.978;5.058;2022-07-23T06:41:34;6.43;;;5.93;;
17424;SDS011;8830;50.978;5.058;2022-07-23T06:44:02;7.25;;;6.65;;
17424;SDS011;8830;50.978;5.058;2022-07-23T06:46:29;6.90;;;6.40;;
17424;SDS011;8830;50.978;5.058;2022-07-23T06:48:59;7.22;;;6.60;;
17424;SDS011;8830;50.978;5.058;2022-07-23T06:51:26;8.75;;;7.07;;
17424;SDS011;8830;50.978;5.058;2022-07-23T06:53:53;7.90;;;6.88;;
17424;SDS011;8830;50.978;5.058;2022-07-23T06:56:20;7.57;;;6.88;;
17424;SDS011;8830;50.978;5.058;2022-07-23T06:58:48;7.68;;;7.10;;
17424;SDS011;8830;50.978;5.058;2022-07-23T07:01:15;6.57;;;6.18;;
17424;SDS011;8830;50.978;5.058;2022-07-23T07:03:42;6.93;;;6.43;;
17424;SDS011;8830;50.978;5.058;2022-07-23T07:06:11;6.85;;;6.35;;
17424;SDS011;8830;50.978;5.058;2022-07-23T07:08:39;8.23;;;7.38;;
17424;SDS011;8830;50.978;5.058;2022-07-23T07:11:06;7.30;;;6.70;;
17424;SDS011;8830;50.978;5.058;2022-07-23T07:13:34;7.85;;;7.25;;
17424;SDS011;8830;50.978;5.058;2022-07-23T07:16:01;8.13;;;6.40;;
17424;SDS011;8830;50.978;5.058;2022-07-23T07:18:29;7.53;;;6.82;;
17424;SDS011;8830;50.978;5.058;2022-07-23T07:20:56;8.10;;;6.53;;
17424;SDS011;8830;50.978;5.058;2022-07-23T07:23:25;7.05;;;6.47;;
17424;SDS011;8830;50.978;5.058;2022-07-23T07:25:52;6.47;;;6.03;;
17424;SDS011;8830;50.978;5.058;2022-07-23T07:28:21;8.80;;;6.63;;
17424;SDS011;8830;50.978;5.058;2022-07-23T07:30:48;10.38;;;7.30;;
17424;SDS011;8830;50.978;5.058;2022-07-23T07:33:15;6.93;;;6.30;;
17424;SDS011;8830;50.978;5.058;2022-07-23T07:35:43;7.30;;;6.70;;
17424;SDS011;8830;50.978;5.058;2022-07-23T07:38:09;7.22;;;6.57;;
17424;SDS011;8830;50.978;5.058;2022-07-23T07:40:38;7.47;;;6.82;;
17424;SDS011;8830;50.978;5.058;2022-07-23T07:43:05;7.10;;;6.50;;
17424;SDS011;8830;50.978;5.058;2022-07-23T07:45:32;6.68;;;6.18;;
17424;SDS011;8830;50.978;5.058;2022-07-23T07:47:59;6.72;;;6.32;;
17424;SDS011;8830;50.978;5.058;2022-07-23T07:50:27;6.80;;;6.20;;
17424;SDS011;8830;50.978;5.058;2022-07-23T07:52:54;6.88;;;6.43;;
17424;SDS011;8830;50.978;5.058;2022-07-23T07:55:21;7.20;;;6.60;;
17424;SDS011;8830;50.978;5.058;2022-07-23T07:57:50;6.45;;;5.95;;
17424;SDS011;8830;50.978;5.058;2022-07-23T08:00:18;7.00;;;6.40;;
17424;SDS011;8830;50.978;5.058;2022-07-23T08:02:45;6.88;;;6.35;;
17424;SDS011;8830;50.978;5.058;2022-07-23T08:05:14;7.00;;;6.50;;
17424;SDS011;8830;50.978;5.058;2022-07-23T08:07:46;7.15;;;5.85;;
17424;SDS011;8830;50.978;5.058;2022-07-23T08:10:13;6.47;;;5.93;;
17424;SDS011;8830;50.978;5.058;2022-07-23T08:12:42;7.35;;;6.75;;
17424;SDS011;8830;50.978;5.058;2022-07-23T08:15:12;11.15;;;10.25;;
17424;SDS011;8830;50.978;5.058;2022-07-23T08:17:41;6.45;;;5.95;;
17424;SDS011;8830;50.978;5.058;2022-07-23T08:20:08;6.38;;;5.88;;
17424;SDS011;8830;50.978;5.058;2022-07-23T08:22:47;7.07;;;6.57;;
17424;SDS011;8830;50.978;5.058;2022-07-23T08:25:19;6.68;;;6.18;;
17424;SDS011;8830;50.978;5.058;2022-07-23T08:27:47;7.50;;;6.90;;
17424;SDS011;8830;50.978;5.058;2022-07-23T08:30:16;7.80;;;7.20;;
17424;SDS011;8830;50.978;5.058;2022-07-23T08:32:50;7.78;;;7.18;;
17424;SDS011;8830;50.978;5.058;2022-07-23T08:35:21;8.68;;;7.30;;
17424;SDS011;8830;50.978;5.058;2022-07-23T08:37:50;7.97;;;7.28;;
17424;SDS011;8830;50.978;5.058;2022-07-23T08:40:17;7.88;;;7.18;;
17424;SDS011;8830;50.978;5.058;2022-07-23T08:42:46;8.18;;;7.55;;
17424;SDS011;8830;50.978;5.058;2022-07-23T08:45:17;6.53;;;6.13;;
17424;SDS011;8830;50.978;5.058;2022-07-23T08:47:47;8.07;;;7.35;;
17424;SDS011;8830;50.978;5.058;2022-07-23T08:50:19;7.75;;;7.15;;
17424;SDS011;8830;50.978;5.058;2022-07-23T08:52:47;7.80;;;7.10;;
17424;SDS011;8830;50.978;5.058;2022-07-23T08:55:16;8.18;;;7.57;;
17424;SDS011;8830;50.978;5.058;2022-07-23T08:57:43;7.57;;;6.97;;
17424;SDS011;8830;50.978;5.058;2022-07-23T09:00:11;7.13;;;6.63;;
17424;SDS011;8830;50.978;5.058;2022-07-23T09:02:41;8.15;;;7.43;;
17424;SDS011;8830;50.978;5.058;2022-07-23T09:05:09;7.40;;;6.88;;
17424;SDS011;8830;50.978;5.058;2022-07-23T09:07:37;7.45;;;6.95;;
17424;SDS011;8830;50.978;5.058;2022-07-23T09:10:25;8.23;;;7.53;;
17424;SDS011;8830;50.978;5.058;2022-07-23T09:12:52;8.60;;;7.80;;
17424;SDS011;8830;50.978;5.058;2022-07-23T09:15:19;8.13;;;7.60;;
17424;SDS011;8830;50.978;5.058;2022-07-23T09:17:49;7.70;;;7.10;;
17424;SDS011;8830;50.978;5.058;2022-07-23T09:20:16;7.78;;;7.18;;
17424;SDS011;8830;50.978;5.058;2022-07-23T09:22:44;8.27;;;7.68;;
17424;SDS011;8830;50.978;5.058;2022-07-23T09:25:13;7.03;;;6.32;;
17424;SDS011;8830;50.978;5.058;2022-07-23T09:27:45;7.25;;;6.75;;
17424;SDS011;8830;50.978;5.058;2022-07-23T09:30:18;7.57;;;6.97;;
17424;SDS011;8830;50.978;5.058;2022-07-23T09:35:46;7.00;;;6.40;;
17424;SDS011;8830;50.978;5.058;2022-07-23T09:38:15;7.93;;;7.32;;
17424;SDS011;8830;50.978;5.058;2022-07-23T09:40:43;7.40;;;6.65;;
17424;SDS011;8830;50.978;5.058;2022-07-23T09:43:11;9.80;;;7.20;;
17424;SDS011;8830;50.978;5.058;2022-07-23T09:45:39;8.18;;;7.40;;
17424;SDS011;8830;50.978;5.058;2022-07-23T09:48:14;7.07;;;6.22;;
17424;SDS011;8830;50.978;5.058;2022-07-23T09:50:44;7.00;;;6.43;;
17424;SDS011;8830;50.978;5.058;2022-07-23T09:53:12;8.30;;;7.50;;
17424;SDS011;8830;50.978;5.058;2022-07-23T09:55:51;7.57;;;6.80;;
17424;SDS011;8830;50.978;5.058;2022-07-23T09:58:19;9.88;;;9.18;;
17424;SDS011;8830;50.978;5.058;2022-07-23T10:00:48;11.30;;;8.13;;
17424;SDS011;8830;50.978;5.058;2022-07-23T10:03:18;7.05;;;6.43;;
17424;SDS011;8830;50.978;5.058;2022-07-23T10:05:48;7.85;;;7.15;;
17424;SDS011;8830;50.978;5.058;2022-07-23T10:08:16;7.22;;;6.60;;
17424;SDS011;8830;50.978;5.058;2022-07-23T10:10:46;8.75;;;6.68;;
17424;SDS011;8830;50.978;5.058;2022-07-23T10:13:13;5.47;;;5.07;;
17424;SDS011;8830;50.978;5.058;2022-07-23T10:16:04;5.65;;;5.00;;
17424;SDS011;8830;50.978;5.058;2022-07-23T10:18:33;5.10;;;4.70;;
17424;SDS011;8830;50.978;5.058;2022-07-23T10:21:02;4.30;;;4.00;;
17424;SDS011;8830;50.978;5.058;2022-07-23T10:23:35;4.93;;;4.43;;
17424;SDS011;8830;50.978;5.058;2022-07-23T10:26:09;4.70;;;4.20;;
17424;SDS011;8830;50.978;5.058;2022-07-23T10:29:01;4.88;;;4.47;;
17424;SDS011;8830;50.978;5.058;2022-07-23T10:31:38;4.55;;;4.15;;
17424;SDS011;8830;50.978;5.058;2022-07-23T10:34:17;5.22;;;4.72;;
17424;SDS011;8830;50.978;5.058;2022-07-23T10:36:52;4.70;;;4.30;;
17424;SDS011;8830;50.978;5.058;2022-07-23T10:39:26;5.18;;;4.60;;
17424;SDS011;8830;50.978;5.058;2022-07-23T10:42:07;5.38;;;4.88;;
17424;SDS011;8830;50.978;5.058;2022-07-23T10:44:37;6.10;;;5.60;;
17424;SDS011;8830;50.978;5.058;2022-07-23T10:47:07;6.25;;;5.43;;
17424;SDS011;8830;50.978;5.058;2022-07-23T10:49:50;5.07;;;4.68;;
17424;SDS011;8830;50.978;5.058;2022-07-23T10:52:18;5.07;;;4.68;;
17424;SDS011;8830;50.978;5.058;2022-07-23T10:54:48;4.65;;;4.20;;
17424;SDS011;8830;50.978;5.058;2022-07-23T10:57:16;5.10;;;4.70;;
17424;SDS011;8830;50.978;5.058;2022-07-23T11:02:40;3.60;;;3.35;;
17424;SDS011;8830;50.978;5.058;2022-07-23T11:05:11;3.80;;;3.50;;
17424;SDS011;8830;50.978;5.058;2022-07-23T11:10:42;3.70;;;3.28;;
17424;SDS011;8830;50.978;5.058;2022-07-23T11:13:29;3.53;;;3.33;;
17424;SDS011;8830;50.978;5.058;2022-07-23T11:16:13;3.65;;;3.17;;
17424;SDS011;8830;50.978;5.058;2022-07-23T11:18:58;3.78;;;2.50;;
17424;SDS011;8830;50.978;5.058;2022-07-23T11:21:44;2.95;;;2.50;;
17424;SDS011;8830;50.978;5.058;2022-07-23T11:24:13;2.80;;;2.35;;
17424;SDS011;8830;50.978;5.058;2022-07-23T11:27:03;2.33;;;2.10;;
17424;SDS011;8830;50.978;5.058;2022-07-23T11:29:46;2.45;;;2.30;;
17424;SDS011;8830;50.978;5.058;2022-07-23T11:37:49;3.20;;;1.75;;
17424;SDS011;8830;50.978;5.058;2022-07-23T11:40:19;3.40;;;2.67;;
17424;SDS011;8830;50.978;5.058;2022-07-23T11:42:54;3.20;;;1.95;;
17424;SDS011;8830;50.978;5.058;2022-07-23T11:45:23;1.60;;;1.45;;
17424;SDS011;8830;50.978;5.058;2022-07-23T11:47:52;1.88;;;1.40;;
17424;SDS011;8830;50.978;5.058;2022-07-23T11:50:22;2.15;;;1.95;;
17424;SDS011;8830;50.978;5.058;2022-07-23T11:52:52;61.65;;;8.60;;
17424;SDS011;8830;50.978;5.058;2022-07-23T11:55:20;4.55;;;1.90;;
17424;SDS011;8830;50.978;5.058;2022-07-23T11:57:47;2.50;;;1.85;;
17424;SDS011;8830;50.978;5.058;2022-07-23T12:00:15;1.85;;;1.73;;
17424;SDS011;8830;50.978;5.058;2022-07-23T12:02:47;1.65;;;1.50;;
17424;SDS011;8830;50.978;5.058;2022-07-23T12:05:17;1.75;;;1.65;;
17424;SDS011;8830;50.978;5.058;2022-07-23T12:07:46;2.30;;;2.08;;
17424;SDS011;8830;50.978;5.058;2022-07-23T12:10:18;2.63;;;1.83;;
17424;SDS011;8830;50.978;5.058;2022-07-23T12:12:47;4.05;;;1.60;;
17424;SDS011;8830;50.978;5.058;2022-07-23T12:15:16;1.92;;;1.75;;
17424;SDS011;8830;50.978;5.058;2022-07-23T12:17:46;2.15;;;1.75;;
17424;SDS011;8830;50.978;5.058;2022-07-23T12:20:16;3.20;;;1.83;;
17424;SDS011;8830;50.978;5.058;2022-07-23T12:22:45;2.20;;;1.60;;
17424;SDS011;8830;50.978;5.058;2022-07-23T12:25:20;3.50;;;1.92;;
17424;SDS011;8830;50.978;5.058;2022-07-23T12:27:57;3.75;;;1.63;;
17424;SDS011;8830;50.978;5.058;2022-07-23T12:30:28;1.95;;;1.85;;
17424;SDS011;8830;50.978;5.058;2022-07-23T12:32:57;3.45;;;1.90;;
17424;SDS011;8830;50.978;5.058;2022-07-23T12:35:30;1.83;;;1.65;;
17424;SDS011;8830;50.978;5.058;2022-07-23T12:38:00;2.15;;;2.00;;
17424;SDS011;8830;50.978;5.058;2022-07-23T12:40:30;2.40;;;2.20;;
17424;SDS011;8830;50.978;5.058;2022-07-23T12:43:01;2.88;;;2.58;;
17424;SDS011;8830;50.978;5.058;2022-07-23T12:45:41;2.45;;;2.25;;
17424;SDS011;8830;50.978;5.058;2022-07-23T12:48:15;3.20;;;2.60;;
17424;SDS011;8830;50.978;5.058;2022-07-23T12:50:44;2.70;;;2.10;;
17424;SDS011;8830;50.978;5.058;2022-07-23T12:53:16;2.70;;;1.95;;
17424;SDS011;8830;50.978;5.058;2022-07-23T12:55:46;2.38;;;2.10;;
17424;SDS011;8830;50.978;5.058;2022-07-23T12:58:14;2.47;;;2.28;;
17424;SDS011;8830;50.978;5.058;2022-07-23T13:00:50;3.05;;;2.72;;
17424;SDS011;8830;50.978;5.058;2022-07-23T13:03:21;3.55;;;2.47;;
17424;SDS011;8830;50.978;5.058;2022-07-23T13:05:49;2.50;;;2.25;;
17424;SDS011;8830;50.978;5.058;2022-07-23T13:08:16;2.33;;;2.10;;
17424;SDS011;8830;50.978;5.058;2022-07-23T13:10:45;2.13;;;2.00;;
17424;SDS011;8830;50.978;5.058;2022-07-23T13:13:14;2.20;;;2.10;;
17424;SDS011;8830;50.978;5.058;2022-07-23T13:15:42;3.83;;;2.20;;
17424;SDS011;8830;50.978;5.058;2022-07-23T13:18:09;2.47;;;2.28;;
17424;SDS011;8830;50.978;5.058;2022-07-23T13:20:36;1.95;;;1.77;;
17424;SDS011;8830;50.978;5.058;2022-07-23T13:23:04;2.50;;;2.10;;
17424;SDS011;8830;50.978;5.058;2022-07-23T13:25:32;3.08;;;1.67;;
17424;SDS011;8830;50.978;5.058;2022-07-23T13:28:00;3.70;;;1.83;;
17424;SDS011;8830;50.978;5.058;2022-07-23T13:30:29;1.98;;;1.88;;
17424;SDS011;8830;50.978;5.058;2022-07-23T13:32:56;2.38;;;1.98;;
17424;SDS011;8830;50.978;5.058;2022-07-23T13:35:23;2.75;;;2.20;;
17424;SDS011;8830;50.978;5.058;2022-07-23T13:37:51;1.70;;;1.60;;
17424;SDS011;8830;50.978;5.058;2022-07-23T13:40:18;2.92;;;2.55;;
17424;SDS011;8830;50.978;5.058;2022-07-23T13:42:46;2.70;;;2.50;;
17424;SDS011;8830;50.978;5.058;2022-07-23T13:45:14;2.10;;;1.88;;
17424;SDS011;8830;50.978;5.058;2022-07-23T13:47:42;4.35;;;2.15;;
17424;SDS011;8830;50.978;5.058;2022-07-23T13:50:09;2.15;;;2.00;;
17424;SDS011;8830;50.978;5.058;2022-07-23T13:52:37;2.35;;;2.08;;
17424;SDS011;8830;50.978;5.058;2022-07-23T13:55:05;2.03;;;1.90;;
17424;SDS011;8830;50.978;5.058;2022-07-23T13:57:33;1.88;;;1.77;;
17424;SDS011;8830;50.978;5.058;2022-07-23T14:00:05;3.00;;;2.05;;
17424;SDS011;8830;50.978;5.058;2022-07-23T14:02:37;2.13;;;2.00;;
17424;SDS011;8830;50.978;5.058;2022-07-23T14:05:08;3.42;;;2.03;;
17424;SDS011;8830;50.978;5.058;2022-07-23T14:07:37;3.58;;;2.17;;
17424;SDS011;8830;50.978;5.058;2022-07-23T14:10:06;3.88;;;2.22;;
17424;SDS011;8830;50.978;5.058;2022-07-23T14:12:34;2.40;;;1.92;;
17424;SDS011;8830;50.978;5.058;2022-07-23T14:15:02;2.00;;;1.80;;
17424;SDS011;8830;50.978;5.058;2022-07-23T14:17:33;2.30;;;2.10;;
17424;SDS011;8830;50.978;5.058;2022-07-23T14:20:03;2.90;;;2.33;;
17424;SDS011;8830;50.978;5.058;2022-07-23T14:22:33;2.85;;;2.20;;
17424;SDS011;8830;50.978;5.058;2022-07-23T14:25:06;3.53;;;2.17;;
17424;SDS011;8830;50.978;5.058;2022-07-23T14:27:34;5.07;;;2.08;;
17424;SDS011;8830;50.978;5.058;2022-07-23T14:30:02;2.45;;;2.25;;
17424;SDS011;8830;50.978;5.058;2022-07-23T14:32:31;3.95;;;2.03;;
17424;SDS011;8830;50.978;5.058;2022-07-23T14:34:59;4.13;;;2.30;;
17424;SDS011;8830;50.978;5.058;2022-07-23T14:37:28;2.08;;;1.98;;
17424;SDS011;8830;50.978;5.058;2022-07-23T14:39:55;3.10;;;2.50;;
17424;SDS011;8830;50.978;5.058;2022-07-23T14:42:22;2.03;;;1.92;;
17424;SDS011;8830;50.978;5.058;2022-07-23T14:44:50;3.97;;;1.80;;
17424;SDS011;8830;50.978;5.058;2022-07-23T14:47:17;2.60;;;2.40;;
17424;SDS011;8830;50.978;5.058;2022-07-23T14:49:44;2.63;;;2.33;;
17424;SDS011;8830;50.978;5.058;2022-07-23T14:52:11;2.47;;;2.05;;
17424;SDS011;8830;50.978;5.058;2022-07-23T14:54:39;2.90;;;2.50;;
17424;SDS011;8830;50.978;5.058;2022-07-23T14:57:08;3.15;;;2.50;;
17424;SDS011;8830;50.978;5.058;2022-07-23T14:59:36;3.28;;;3.08;;
17424;SDS011;8830;50.978;5.058;2022-07-23T15:02:03;2.90;;;2.20;;
17424;SDS011;8830;50.978;5.058;2022-07-23T15:04:30;3.85;;;2.50;;
17424;SDS011;8830;50.978;5.058;2022-07-23T15:06:58;2.38;;;2.05;;
17424;SDS011;8830;50.978;5.058;2022-07-23T15:09:25;3.67;;;2.20;;
17424;SDS011;8830;50.978;5.058;2022-07-23T15:11:53;3.22;;;2.92;;
17424;SDS011;8830;50.978;5.058;2022-07-23T15:14:20;2.70;;;2.50;;
17424;SDS011;8830;50.978;5.058;2022-07-23T15:16:48;2.97;;;2.53;;